createdAt,value
2022-10-16T00:02:26.218Z,10.97
2022-10-16T00:05:13.142Z,10.92
2022-10-16T00:07:53.520Z,10.84
2022-10-16T00:10:40.101Z,10.79
2022-10-16T00:13:21.825Z,10.68
2022-10-16T00:16:11.104Z,10.67
2022-10-16T00:18:51.472Z,10.55
2022-10-16T00:21:41.057Z,10.52
2022-10-16T00:24:28.175Z,10.44
2022-10-16T00:27:15.085Z,10.37
2022-10-16T00:30:06.114Z,10.33
2022-10-16T00:32:46.532Z,10.29
2022-10-16T00:35:33.069Z,10.26
2022-10-16T00:38:13.754Z,10.23
2022-10-16T00:41:00.082Z,10.17
2022-10-16T00:43:44.852Z,10.17
2022-10-16T00:46:40.061Z,10.15
2022-10-16T00:49:21.329Z,10.16
2022-10-16T00:52:08.042Z,10.18
2022-10-16T00:54:58.030Z,10.14
2022-10-16T00:57:44.989Z,10.18
2022-10-16T01:00:34.059Z,10.21
2022-10-16T01:03:31.146Z,10.16
2022-10-16T01:06:32.047Z,10.12
2022-10-16T01:09:27.121Z,10.16
2022-10-16T01:12:18.040Z,10.14
2022-10-16T01:15:13.038Z,10.09
2022-10-16T01:18:05.798Z,10.08
2022-10-16T01:21:01.040Z,10.08
2022-10-16T01:23:41.226Z,10.07
2022-10-16T01:26:46.044Z,9.97
2022-10-16T01:29:45.041Z,10.01
2022-10-16T01:32:32.117Z,9.95
2022-10-16T01:35:35.044Z,9.91
2022-10-16T01:38:23.114Z,9.89
2022-10-16T01:41:25.033Z,9.88
2022-10-16T01:44:19.011Z,9.86
2022-10-16T01:47:00.516Z,9.81
2022-10-16T01:49:50.961Z,9.74
2022-10-16T01:52:34.441Z,9.70
2022-10-16T01:55:24.009Z,9.70
2022-10-16T01:58:08.151Z,9.66
2022-10-16T02:00:59.097Z,9.61
2022-10-16T02:03:50.039Z,9.62
2022-10-16T02:06:30.933Z,9.55
2022-10-16T02:09:12.287Z,9.56
2022-10-16T02:11:58.934Z,9.52
2022-10-16T02:14:40.777Z,9.58
2022-10-16T02:17:30.947Z,9.58
2022-10-16T02:20:18.906Z,9.55
2022-10-16T02:23:01.039Z,9.52
2022-10-16T02:25:51.914Z,9.45
2022-10-16T02:28:55.930Z,9.37
2022-10-16T02:31:48.917Z,9.33
2022-10-16T02:34:32.019Z,9.28
2022-10-16T02:37:19.910Z,9.25
2022-10-16T02:40:07.940Z,9.17
2022-10-16T02:42:58.884Z,9.12
2022-10-16T02:45:45.955Z,9.03
2022-10-16T02:48:26.290Z,8.95
2022-10-16T02:51:12.906Z,8.90
2022-10-16T02:53:53.328Z,8.88
2022-10-16T02:56:39.888Z,8.82
2022-10-16T02:59:20.237Z,8.86
2022-10-16T03:02:06.971Z,8.89
2022-10-16T03:04:47.323Z,8.89
2022-10-16T03:26:03.037Z,8.62
2022-10-16T03:28:50.035Z,8.77
2022-10-16T03:31:37.067Z,8.85
2022-10-16T03:34:17.530Z,8.89
2022-10-16T03:37:04.077Z,8.90
2022-10-16T03:39:44.390Z,8.92
2022-10-16T03:42:31.995Z,8.93
2022-10-16T03:45:12.799Z,8.90
2022-10-16T03:48:00.015Z,8.93
2022-10-16T03:50:40.458Z,8.97
2022-10-16T03:53:26.986Z,9.04
2022-10-16T03:56:07.699Z,9.02
2022-10-16T03:58:53.995Z,9.02
2022-10-16T04:01:34.405Z,8.99
2022-10-16T04:04:21.003Z,8.99
2022-10-16T04:07:08.027Z,8.96
2022-10-16T04:09:48.174Z,8.95
2022-10-16T04:12:34.957Z,8.92
2022-10-16T04:15:15.086Z,8.90
2022-10-16T04:18:01.997Z,8.91
2022-10-16T04:20:42.116Z,8.93
2022-10-16T04:23:30.972Z,8.94
2022-10-16T04:26:18.111Z,8.96
2022-10-16T04:28:57.995Z,9.03
2022-10-16T04:31:38.297Z,9.09
2022-10-16T04:34:24.931Z,9.11
2022-10-16T04:37:05.356Z,9.18
2022-10-16T04:39:52.984Z,9.21
2022-10-16T04:42:33.347Z,9.30
2022-10-16T04:45:20.889Z,9.36
2022-10-16T04:48:01.396Z,9.46
2022-10-16T04:50:52.935Z,9.53
2022-10-16T04:53:35.569Z,9.49
2022-10-16T04:56:22.906Z,9.47
2022-10-16T04:59:03.357Z,9.58
2022-10-16T05:01:49.917Z,9.53
2022-10-16T05:04:30.260Z,9.71
2022-10-16T05:07:16.890Z,9.79
2022-10-16T05:10:03.891Z,10.04
2022-10-16T05:12:50.899Z,10.13
2022-10-16T05:15:31.253Z,10.29
2022-10-16T05:18:17.857Z,10.45
2022-10-16T05:21:04.877Z,10.44
2022-10-16T05:23:58.869Z,10.69
2022-10-16T05:26:49.119Z,10.91
2022-10-16T05:29:35.877Z,11.21
2022-10-16T05:32:18.533Z,11.39
2022-10-16T05:35:08.769Z,11.52
2022-10-16T05:38:00.027Z,11.80
2022-10-16T05:40:46.854Z,11.68
2022-10-16T05:43:28.837Z,11.91
2022-10-16T05:46:18.876Z,12.29
2022-10-16T05:48:59.445Z,13.19
2022-10-16T05:51:45.844Z,13.82
2022-10-16T05:54:26.236Z,14.10
2022-10-16T05:57:13.834Z,14.85
2022-10-16T06:00:00.850Z,15.36
2022-10-16T06:02:45.919Z,16.09
2022-10-16T06:05:33.842Z,15.83
2022-10-16T06:08:13.951Z,16.30
2022-10-16T06:11:15.827Z,16.85
2022-10-16T06:14:02.824Z,17.40
2022-10-16T06:16:49.805Z,18.17
2022-10-16T06:19:36.839Z,17.80
2022-10-16T06:22:23.811Z,17.59
2022-10-16T06:25:17.816Z,17.32
2022-10-16T06:27:58.464Z,18.16
2022-10-16T06:30:44.786Z,18.17
2022-10-16T06:33:31.861Z,18.74
2022-10-16T06:36:15.401Z,19.34
2022-10-16T06:39:01.803Z,19.60
2022-10-16T06:41:48.854Z,20.01
2022-10-16T06:44:29.167Z,19.91
2022-10-16T06:47:15.778Z,20.52
2022-10-16T06:49:56.180Z,20.45
2022-10-16T06:52:42.766Z,21.44
2022-10-16T06:55:23.310Z,21.16
2022-10-16T06:58:10.774Z,21.46
2022-10-16T07:00:57.979Z,21.33
2022-10-16T07:03:44.775Z,21.12
2022-10-16T07:06:26.831Z,20.54
2022-10-16T07:09:15.759Z,20.84
2022-10-16T07:12:02.745Z,20.56
2022-10-16T07:14:49.711Z,21.64
2022-10-16T07:17:36.779Z,21.38
2022-10-16T07:20:16.845Z,21.99
2022-10-16T07:23:03.745Z,22.06
2022-10-16T07:25:57.779Z,22.50
2022-10-16T07:28:44.920Z,22.85
2022-10-16T07:31:26.742Z,23.40
2022-10-16T07:34:07.136Z,23.11
2022-10-16T07:36:53.750Z,23.65
2022-10-16T07:39:34.190Z,23.45
2022-10-16T07:42:20.719Z,23.44
2022-10-16T07:45:01.113Z,24.52
2022-10-16T07:47:47.674Z,25.28
2022-10-16T07:50:28.073Z,25.04
2022-10-16T07:53:14.716Z,24.58
2022-10-16T07:56:03.515Z,25.42
2022-10-16T07:58:50.745Z,25.66
2022-10-16T08:01:31.146Z,24.84
2022-10-16T08:04:17.699Z,24.15
2022-10-16T08:07:04.659Z,24.09
2022-10-16T08:09:51.667Z,24.76
2022-10-16T08:12:38.694Z,24.32
2022-10-16T08:15:18.877Z,24.84
2022-10-16T08:18:08.681Z,25.50
2022-10-16T08:20:49.773Z,24.74
2022-10-16T08:23:36.674Z,24.72
2022-10-16T08:26:30.657Z,24.76
2022-10-16T08:29:17.752Z,25.60
2022-10-16T08:32:04.662Z,25.75
2022-10-16T08:34:51.654Z,26.63
2022-10-16T08:37:38.695Z,26.36
2022-10-16T08:40:27.124Z,26.07
2022-10-16T08:43:38.651Z,26.87
2022-10-16T08:46:50.625Z,26.86
2022-10-16T08:49:32.704Z,26.52
2022-10-16T08:52:26.813Z,27.14
2022-10-16T08:55:13.689Z,27.04
2022-10-16T08:57:53.784Z,27.06
2022-10-16T09:00:40.701Z,27.68
2022-10-16T09:03:40.726Z,25.15
2022-10-16T09:07:01.632Z,25.67
2022-10-16T09:09:41.863Z,27.00
2022-10-16T09:12:37.634Z,26.99
2022-10-16T09:15:34.655Z,26.97
2022-10-16T09:19:02.077Z,26.30
2022-10-16T09:21:55.628Z,28.79
2022-10-16T09:24:36.440Z,28.38
2022-10-16T09:27:29.040Z,29.68
2022-10-16T09:30:27.635Z,29.36
2022-10-16T09:33:08.744Z,28.83
2022-10-16T09:36:01.564Z,30.44
2022-10-16T09:38:49.639Z,29.12
2022-10-16T09:41:36.592Z,28.68
2022-10-16T09:44:38.608Z,27.80
2022-10-16T09:47:28.892Z,29.44
2022-10-16T09:50:13.650Z,28.65
2022-10-16T09:53:21.578Z,30.24
2022-10-16T09:56:11.729Z,29.07
2022-10-16T09:58:57.187Z,29.97
2022-10-16T10:01:53.556Z,28.05
2022-10-16T10:04:44.598Z,25.36
2022-10-16T10:07:57.560Z,25.67
2022-10-16T10:10:43.182Z,28.33
2022-10-16T10:13:38.591Z,27.98
2022-10-16T10:16:32.578Z,28.40
2022-10-16T10:19:27.985Z,26.51
2022-10-16T10:22:29.868Z,28.28
2022-10-16T10:25:26.688Z,27.11
2022-10-16T10:28:31.613Z,26.30
2022-10-16T10:31:32.588Z,26.55
2022-10-16T10:34:44.867Z,28.07
2022-10-16T10:37:49.574Z,29.21
2022-10-16T10:40:45.203Z,28.40
2022-10-16T10:43:45.536Z,28.53
2022-10-16T10:46:56.607Z,30.58
2022-10-16T10:49:58.495Z,29.23
2022-10-16T10:52:54.246Z,28.05
2022-10-16T10:55:43.478Z,27.97
2022-10-16T10:58:45.521Z,25.49
2022-10-16T11:01:53.518Z,25.43
2022-10-16T11:04:52.512Z,24.39
2022-10-16T11:07:48.649Z,25.97
2022-10-16T11:10:45.590Z,25.86
2022-10-16T11:13:41.487Z,26.49
2022-10-16T11:16:46.498Z,27.17
2022-10-16T11:19:35.621Z,26.70
2022-10-16T11:22:29.466Z,27.72
2022-10-16T11:25:27.457Z,26.75
2022-10-16T11:28:13.797Z,26.01
2022-10-16T11:31:25.483Z,26.61
2022-10-16T11:34:55.446Z,26.62
2022-10-16T11:37:45.559Z,28.21
2022-10-16T11:40:49.514Z,27.79
2022-10-16T11:43:47.496Z,29.46
2022-10-16T11:46:28.878Z,27.28
2022-10-16T11:49:35.471Z,24.72
2022-10-16T11:52:50.439Z,21.29
2022-10-16T11:55:46.206Z,20.14
2022-10-16T11:58:52.517Z,19.34
2022-10-16T12:01:32.685Z,18.59
2022-10-16T12:04:53.446Z,18.26
2022-10-16T12:07:45.470Z,17.94
2022-10-16T12:10:44.452Z,17.85
2022-10-16T12:13:38.679Z,17.76
2022-10-16T12:16:28.431Z,17.97
2022-10-16T12:19:21.427Z,17.96
2022-10-16T12:22:12.417Z,17.79
2022-10-16T12:24:59.423Z,17.49
2022-10-16T12:27:47.400Z,17.45
2022-10-16T12:30:33.754Z,17.61
2022-10-16T12:33:42.427Z,17.72
2022-10-16T12:36:35.369Z,17.50
2022-10-16T12:39:38.385Z,17.38
2022-10-16T12:42:34.404Z,17.38
2022-10-16T12:45:39.387Z,17.49
2022-10-16T12:48:26.498Z,17.51
2022-10-16T12:51:43.431Z,17.19
2022-10-16T12:54:43.395Z,16.96
2022-10-16T12:57:38.279Z,16.83
2022-10-16T13:00:27.398Z,16.92
2022-10-16T13:03:39.358Z,16.99
2022-10-16T13:06:56.381Z,17.00
2022-10-16T13:09:43.468Z,17.01
2022-10-16T13:13:01.379Z,16.95
2022-10-16T13:15:50.886Z,16.77
2022-10-16T13:19:15.369Z,16.73
2022-10-16T13:22:02.359Z,16.72
2022-10-16T13:25:07.988Z,16.68
2022-10-16T13:28:09.371Z,16.64
2022-10-16T13:30:52.432Z,16.73
2022-10-16T13:33:49.351Z,16.72
2022-10-16T13:36:39.358Z,16.67
2022-10-16T13:39:29.424Z,16.59
2022-10-16T13:42:39.306Z,16.54
2022-10-16T13:45:26.210Z,16.59
2022-10-16T13:48:20.341Z,16.57
2022-10-16T13:51:10.385Z,16.46
2022-10-16T13:53:51.418Z,16.41
2022-10-16T13:56:40.357Z,16.40
2022-10-16T13:59:33.437Z,16.35
2022-10-16T14:02:32.330Z,16.28
2022-10-16T14:05:23.314Z,16.15
2022-10-16T14:08:03.788Z,16.16
2022-10-16T14:10:50.335Z,16.10
2022-10-16T14:13:40.010Z,16.05
2022-10-16T14:16:36.302Z,16.02
2022-10-16T14:19:24.994Z,15.98
2022-10-16T14:22:13.265Z,15.83
2022-10-16T14:25:07.301Z,15.76
2022-10-16T14:28:16.737Z,15.72
2022-10-16T14:31:10.254Z,15.61
2022-10-16T14:33:57.268Z,15.61
2022-10-16T14:36:38.447Z,15.59
2022-10-16T14:39:30.302Z,15.56
2022-10-16T14:42:10.611Z,15.41
2022-10-16T14:45:01.447Z,15.35
2022-10-16T14:47:41.370Z,15.31
2022-10-16T14:50:28.272Z,15.27
2022-10-16T14:53:15.269Z,15.20
2022-10-16T14:55:55.653Z,15.11
2022-10-16T14:58:42.253Z,15.07
2022-10-16T15:01:22.876Z,14.98
2022-10-16T15:04:09.298Z,14.89
2022-10-16T15:06:56.245Z,14.82
2022-10-16T15:09:36.336Z,14.71
2022-10-16T15:28:00.265Z,13.74
2022-10-16T15:30:41.118Z,13.77
2022-10-16T15:33:38.773Z,13.83
2022-10-16T15:36:44.242Z,13.75
2022-10-16T15:39:36.629Z,13.74
2022-10-16T15:42:27.332Z,13.73
2022-10-16T15:45:07.565Z,13.67
2022-10-16T15:47:54.170Z,13.65
2022-10-16T15:50:41.214Z,13.62
2022-10-16T15:53:21.566Z,13.58
2022-10-16T15:56:08.195Z,13.50
2022-10-16T15:58:49.556Z,13.40
2022-10-16T16:01:37.279Z,13.40
2022-10-16T16:04:42.184Z,13.33
2022-10-16T16:07:24.129Z,13.25
2022-10-16T16:10:06.840Z,13.22
2022-10-16T16:12:57.190Z,13.15
2022-10-16T16:15:48.167Z,13.08
2022-10-16T16:18:29.668Z,13.05
2022-10-16T16:21:18.116Z,13.05
2022-10-16T16:24:05.193Z,13.02
2022-10-16T16:26:52.209Z,12.93
2022-10-16T16:29:32.242Z,12.89
2022-10-16T16:32:19.117Z,12.84
2022-10-16T16:34:59.241Z,12.82
2022-10-16T16:37:46.180Z,12.78
2022-10-16T16:40:26.235Z,12.78
2022-10-16T16:43:13.103Z,12.72
2022-10-16T16:45:53.297Z,12.70
2022-10-16T16:48:40.126Z,12.63
2022-10-16T16:51:22.221Z,12.63
2022-10-16T16:54:09.159Z,12.57
2022-10-16T16:56:56.100Z,12.49
2022-10-16T16:59:43.111Z,12.43
2022-10-16T17:02:23.229Z,12.40
2022-10-16T17:05:10.105Z,12.41
2022-10-16T17:07:57.106Z,12.35
2022-10-16T17:10:44.107Z,12.35
2022-10-16T17:13:31.075Z,12.36
2022-10-16T17:16:11.895Z,12.32
2022-10-16T17:19:00.095Z,12.28
2022-10-16T17:21:41.217Z,12.21
2022-10-16T17:24:28.042Z,12.20
2022-10-16T17:27:22.109Z,12.08
2022-10-16T17:30:09.059Z,12.01
2022-10-16T17:32:49.205Z,11.97
2022-10-16T17:35:36.075Z,11.98
2022-10-16T17:38:24.061Z,11.95
2022-10-16T17:41:41.051Z,11.88
2022-10-16T17:44:29.072Z,11.85
2022-10-16T17:47:16.057Z,11.81
2022-10-16T17:49:57.573Z,11.85
2022-10-16T17:52:44.051Z,11.77
2022-10-16T17:55:31.032Z,11.78
2022-10-16T17:58:18.140Z,11.80
2022-10-16T18:01:05.034Z,11.77
2022-10-16T18:03:49.886Z,11.73
2022-10-16T18:06:37.009Z,11.73
2022-10-16T18:09:20.618Z,11.73
2022-10-16T18:12:07.043Z,11.67
2022-10-16T18:14:47.431Z,11.66
2022-10-16T18:17:34.006Z,11.58
2022-10-16T18:20:14.461Z,11.56
2022-10-16T18:23:01.005Z,11.56
2022-10-16T18:26:02.985Z,11.57
2022-10-16T18:28:51.059Z,11.50
2022-10-16T18:31:33.294Z,11.50
2022-10-16T18:34:20.999Z,11.53
2022-10-16T18:37:01.140Z,11.52
2022-10-16T18:39:47.987Z,11.41
2022-10-16T18:42:34.979Z,11.41
2022-10-16T18:45:15.475Z,11.35
2022-10-16T18:47:54.976Z,11.24
2022-10-16T18:50:41.962Z,11.27
2022-10-16T18:53:22.425Z,11.10
2022-10-16T18:56:08.985Z,11.08
2022-10-16T18:58:51.639Z,10.98
2022-10-16T19:01:40.021Z,10.87
2022-10-16T19:04:29.993Z,10.75
2022-10-16T19:07:10.090Z,10.69
2022-10-16T19:09:56.906Z,10.65
2022-10-16T19:12:44.935Z,10.56
2022-10-16T19:15:25.348Z,10.43
2022-10-16T19:18:11.908Z,10.42
2022-10-16T19:20:58.978Z,10.44
2022-10-16T19:23:39.015Z,10.42
2022-10-16T19:26:27.930Z,10.41
2022-10-16T19:29:16.929Z,10.33
2022-10-16T19:31:57.380Z,10.33
2022-10-16T19:34:43.941Z,10.29
2022-10-16T19:37:33.897Z,10.25
2022-10-16T19:40:13.995Z,10.23
2022-10-16T19:43:00.903Z,10.17
2022-10-16T19:45:41.040Z,10.15
2022-10-16T19:48:29.915Z,10.05
2022-10-16T19:51:11.022Z,10.09
2022-10-16T19:54:01.865Z,10.11
2022-10-16T19:56:43.081Z,10.13
2022-10-16T19:59:29.873Z,10.05
2022-10-16T20:02:09.997Z,10.07
2022-10-16T20:04:56.878Z,9.99
2022-10-16T20:07:37.376Z,9.97
2022-10-16T20:10:24.875Z,9.86
2022-10-16T20:13:04.978Z,9.81
2022-10-16T20:15:51.959Z,9.71
2022-10-16T20:18:32.042Z,9.71
2022-10-16T20:21:21.881Z,9.65
2022-10-16T20:24:02.198Z,9.61
2022-10-16T20:26:48.826Z,9.57
2022-10-16T20:29:29.000Z,9.58
2022-10-16T20:32:15.822Z,9.60
2022-10-16T20:34:55.912Z,9.55
2022-10-16T20:37:42.864Z,9.51
2022-10-16T20:40:29.824Z,9.55
2022-10-16T20:43:24.460Z,9.54
2022-10-16T20:46:09.809Z,9.49
2022-10-16T20:49:06.019Z,9.44
2022-10-16T20:51:51.050Z,9.39
2022-10-16T20:54:37.789Z,9.26
2022-10-16T20:57:25.026Z,9.29
2022-10-16T21:00:06.518Z,9.18
2022-10-16T21:02:52.809Z,9.19
2022-10-16T21:05:39.880Z,9.14
2022-10-16T21:08:19.902Z,9.06
2022-10-16T21:11:06.773Z,9.02
2022-10-16T21:13:53.805Z,9.01
2022-10-16T21:16:34.582Z,9.06
2022-10-16T21:19:21.791Z,9.10
2022-10-16T21:22:02.146Z,9.12
2022-10-16T21:24:49.775Z,9.13
2022-10-16T21:27:43.816Z,9.13
2022-10-16T21:30:30.847Z,9.12
2022-10-16T21:33:10.727Z,9.14
2022-10-16T21:35:57.733Z,9.13
2022-10-16T21:38:37.893Z,9.17
2022-10-16T21:41:28.779Z,9.26
2022-10-16T21:44:10.899Z,9.40
2022-10-16T21:46:57.717Z,9.46
2022-10-16T21:49:37.922Z,9.50
2022-10-16T21:52:24.987Z,9.48
2022-10-16T21:55:04.887Z,9.49
2022-10-16T21:57:51.692Z,9.51
2022-10-16T22:00:31.846Z,9.48
2022-10-16T22:03:18.749Z,9.46
2022-10-16T22:06:02.724Z,9.40
2022-10-16T22:08:54.740Z,9.32
2022-10-16T22:11:44.717Z,9.30
2022-10-16T22:14:31.983Z,9.30
2022-10-16T22:17:11.705Z,9.36
2022-10-16T22:19:52.090Z,9.50
2022-10-16T22:22:38.755Z,9.58
2022-10-16T22:25:19.115Z,9.72
2022-10-16T22:28:05.718Z,9.71
2022-10-16T22:30:52.794Z,9.79
2022-10-16T22:36:24.709Z,9.89
2022-10-16T22:39:04.976Z,9.99
2022-10-16T22:41:51.692Z,10.00
2022-10-16T22:44:31.835Z,10.02
2022-10-16T22:47:18.646Z,10.02
2022-10-16T22:49:58.800Z,10.13
2022-10-16T22:52:45.700Z,10.21
2022-10-16T22:55:25.762Z,10.29
2022-10-16T22:58:12.674Z,10.37
2022-10-16T23:00:59.691Z,10.46
2022-10-16T23:03:40.065Z,10.56
2022-10-16T23:06:26.658Z,10.68
2022-10-16T23:09:07.028Z,10.75
2022-10-16T23:11:53.638Z,10.86
2022-10-16T23:14:34.078Z,10.95
2022-10-16T23:17:20.640Z,11.04
2022-10-16T23:20:07.628Z,11.11
2022-10-16T23:22:54.627Z,11.16
2022-10-16T23:25:35.462Z,11.23
2022-10-16T23:28:22.653Z,11.28
2022-10-16T23:31:07.131Z,11.33
2022-10-16T23:33:53.588Z,11.36
2022-10-16T23:36:33.954Z,11.33
2022-10-16T23:39:20.580Z,11.41
2022-10-16T23:42:07.575Z,11.41
2022-10-16T23:44:54.572Z,11.36
2022-10-16T23:47:41.605Z,11.22
2022-10-16T23:50:21.637Z,11.11
2022-10-16T23:53:11.602Z,11.03
2022-10-16T23:55:51.652Z,10.91
2022-10-16T23:58:38.606Z,10.80
